createdAt,value
2023-04-03T00:00:06.080Z,98785.98
2023-04-03T00:02:37.277Z,98787.15
2023-04-03T00:05:13.557Z,98787.66
2023-04-03T00:07:42.065Z,98788.33
2023-04-03T00:10:13.384Z,98790.38
2023-04-03T00:12:43.767Z,98789.71
2023-04-03T00:15:12.100Z,98787.98
2023-04-03T00:17:41.014Z,98787.12
2023-04-03T00:20:10.645Z,98790.70
2023-04-03T00:22:40.028Z,98792.94
2023-04-03T00:25:15.642Z,98789.55
2023-04-03T00:27:44.689Z,98789.73
2023-04-03T00:30:15.480Z,98788.16
2023-04-03T00:32:45.532Z,98787.66
2023-04-03T00:35:16.709Z,98790.40
2023-04-03T00:37:46.150Z,98783.91
2023-04-03T00:40:15.693Z,98784.77
2023-04-03T00:42:46.712Z,98787.98
2023-04-03T00:45:29.736Z,98783.57
2023-04-03T00:48:01.386Z,98778.13
2023-04-03T00:50:31.492Z,98782.73
2023-04-03T00:53:01.028Z,98781.19
2023-04-03T00:55:29.418Z,98777.59
2023-04-03T00:57:57.678Z,98783.55
2023-04-03T01:00:26.578Z,98780.80
2023-04-03T01:02:59.142Z,98779.75
2023-04-03T01:05:28.988Z,98778.55
2023-04-03T01:07:59.224Z,98775.82
2023-04-03T01:10:27.409Z,98777.34
2023-04-03T01:12:59.072Z,98775.13
2023-04-03T01:15:30.126Z,98774.10
2023-04-03T01:17:59.497Z,98775.29
2023-04-03T01:20:32.367Z,98775.80
2023-04-03T01:23:14.612Z,98774.27
2023-04-03T01:25:46.297Z,98780.42
2023-04-03T01:28:21.987Z,98779.59
2023-04-03T01:31:16.718Z,98777.23
2023-04-03T01:33:45.662Z,98780.14
2023-04-03T01:36:22.984Z,98780.66
2023-04-03T01:38:51.953Z,98779.63
2023-04-03T01:41:20.129Z,98780.66
2023-04-03T01:43:49.555Z,98779.63
2023-04-03T01:46:18.397Z,98780.46
2023-04-03T01:48:46.860Z,98779.41
2023-04-03T01:51:15.053Z,98779.23
2023-04-03T01:53:44.347Z,98777.69
2023-04-03T01:56:14.270Z,98774.80
2023-04-03T01:58:42.590Z,98774.80
2023-04-03T02:01:12.583Z,98774.66
2023-04-03T02:03:42.107Z,98778.25
2023-04-03T02:06:12.709Z,98774.52
2023-04-03T02:08:43.073Z,98774.20
2023-04-03T02:11:11.617Z,98774.90
2023-04-03T02:13:40.164Z,98773.57
2023-04-03T02:16:13.585Z,98775.64
2023-04-03T02:18:42.461Z,98779.91
2023-04-03T02:21:14.355Z,98782.83
2023-04-03T02:23:42.558Z,98781.48
2023-04-03T02:26:11.939Z,98784.06
2023-04-03T02:28:42.215Z,98783.54
2023-04-03T02:31:11.804Z,98783.36
2023-04-03T02:33:41.154Z,98784.88
2023-04-03T02:36:11.260Z,98784.89
2023-04-03T02:38:41.676Z,98783.88
2023-04-03T02:41:12.190Z,98784.55
2023-04-03T02:43:41.066Z,98785.06
2023-04-03T02:46:09.519Z,98784.88
2023-04-03T02:48:37.637Z,98787.23
2023-04-03T02:51:06.276Z,98783.79
2023-04-03T02:53:36.243Z,98783.12
2023-04-03T02:56:11.530Z,98782.96
2023-04-03T02:58:39.946Z,98785.70
2023-04-03T03:01:09.195Z,98788.09
2023-04-03T03:03:38.114Z,98790.47
2023-04-03T03:06:13.027Z,98789.98
2023-04-03T03:08:42.261Z,98791.17
2023-04-03T03:11:16.068Z,98792.71
2023-04-03T03:13:44.798Z,98795.63
2023-04-03T03:16:13.493Z,98795.64
2023-04-03T03:18:42.063Z,98793.42
2023-04-03T03:21:13.798Z,98794.77
2023-04-03T03:23:42.291Z,98789.46
2023-04-03T03:26:11.172Z,98795.10
2023-04-03T03:28:44.251Z,98790.30
2023-04-03T03:31:16.532Z,98788.06
2023-04-03T03:33:45.707Z,98790.27
2023-04-03T03:36:14.105Z,98792.67
2023-04-03T03:38:42.624Z,98791.83
2023-04-03T03:41:11.840Z,98789.80
2023-04-03T03:43:40.255Z,98791.85
2023-04-03T03:46:09.244Z,98793.39
2023-04-03T03:48:40.616Z,98794.92
2023-04-03T03:51:14.060Z,98796.63
2023-04-03T03:53:42.443Z,98794.75
2023-04-03T03:56:14.110Z,98796.64
2023-04-03T03:58:42.656Z,98796.64
2023-04-03T04:01:12.136Z,98799.40
2023-04-03T04:03:47.155Z,98798.23
2023-04-03T04:06:18.795Z,98799.79
2023-04-03T04:08:47.838Z,98804.43
2023-04-03T04:11:19.921Z,98805.80
2023-04-03T04:13:48.810Z,98805.82
2023-04-03T04:16:17.914Z,98808.04
2023-04-03T04:18:49.781Z,98811.74
2023-04-03T04:21:18.812Z,98811.59
2023-04-03T04:23:50.330Z,98810.58
2023-04-03T04:26:20.023Z,98812.80
2023-04-03T04:28:48.559Z,98817.06
2023-04-03T04:31:21.988Z,98816.05
2023-04-03T04:33:50.778Z,98814.34
2023-04-03T04:36:21.071Z,98812.13
2023-04-03T04:38:53.932Z,98815.04
2023-04-03T04:41:26.361Z,98815.92
2023-04-03T04:43:57.343Z,98820.02
2023-04-03T04:46:26.519Z,98816.10
2023-04-03T04:48:59.818Z,98814.94
2023-04-03T04:51:41.064Z,98814.77
2023-04-03T04:54:20.139Z,98814.80
2023-04-03T04:56:51.113Z,98814.11
2023-04-03T04:59:24.502Z,98811.38
2023-04-03T05:01:53.482Z,98812.58
2023-04-03T05:04:22.304Z,98814.47
2023-04-03T05:06:53.684Z,98816.19
2023-04-03T05:09:25.304Z,98818.98
2023-04-03T05:11:57.570Z,98821.77
2023-04-03T05:14:28.189Z,98820.95
2023-04-03T05:16:58.702Z,98823.02
2023-04-03T05:19:29.807Z,98822.34
2023-04-03T05:21:58.750Z,98824.76
2023-04-03T05:24:27.954Z,98826.14
2023-04-03T05:26:56.938Z,98828.71
2023-04-03T05:29:28.765Z,98832.81
2023-04-03T05:31:57.579Z,98833.68
2023-04-03T05:34:27.216Z,98836.80
2023-04-03T05:36:56.001Z,98841.29
2023-04-03T05:39:26.849Z,98839.60
2023-04-03T05:41:55.075Z,98843.02
2023-04-03T05:44:23.911Z,98844.01
2023-04-03T05:46:53.611Z,98846.20
2023-04-03T05:49:22.474Z,98845.88
2023-04-03T05:51:53.141Z,98847.63
2023-04-03T05:54:27.213Z,98849.17
2023-04-03T05:56:59.825Z,98855.52
2023-04-03T05:59:28.706Z,98857.61
2023-04-03T06:02:02.373Z,98857.45
2023-04-03T06:04:34.108Z,98857.14
2023-04-03T06:07:03.759Z,98860.42
2023-04-03T06:09:32.311Z,98857.89
2023-04-03T06:12:01.792Z,98858.45
2023-04-03T06:14:31.038Z,98860.54
2023-04-03T06:17:01.171Z,98866.71
2023-04-03T06:19:30.273Z,98864.48
2023-04-03T06:22:00.394Z,98867.59
2023-04-03T06:24:29.315Z,98871.20
2023-04-03T06:26:57.774Z,98871.20
2023-04-03T06:29:27.858Z,98872.59
2023-04-03T06:31:58.615Z,98874.48
2023-04-03T06:34:26.841Z,98879.80
2023-04-03T06:36:58.034Z,98877.44
2023-04-03T06:39:27.687Z,98877.48
2023-04-03T06:41:56.702Z,98878.87
2023-04-03T06:44:31.600Z,98883.68
2023-04-03T06:47:00.650Z,98883.34
2023-04-03T06:49:32.326Z,98887.44
2023-04-03T06:52:02.655Z,98889.16
2023-04-03T06:54:34.548Z,98889.85
2023-04-03T06:57:04.861Z,98893.29
2023-04-03T06:59:33.166Z,98897.91
2023-04-03T07:02:01.789Z,98898.42
2023-04-03T07:04:32.679Z,98899.95
2023-04-03T07:07:01.671Z,98897.40
2023-04-03T07:09:30.031Z,98900.31
2023-04-03T07:12:02.667Z,98897.91
2023-04-03T07:14:31.142Z,98902.04
2023-04-03T07:16:59.511Z,98900.50
2023-04-03T07:19:29.121Z,98903.41
2023-04-03T07:21:57.332Z,98906.52
2023-04-03T07:24:27.878Z,98907.55
2023-04-03T07:26:56.657Z,98909.46
2023-04-03T07:29:27.267Z,98907.09
2023-04-03T07:32:16.623Z,98909.84
2023-04-03T07:34:47.417Z,98910.90
2023-04-03T07:37:15.852Z,98909.02
2023-04-03T07:39:47.355Z,98909.90
2023-04-03T07:42:15.589Z,98908.71
2023-04-03T07:44:43.944Z,98910.45
2023-04-03T07:47:12.476Z,98910.63
2023-04-03T07:49:41.597Z,98908.59
2023-04-03T07:52:10.437Z,98911.49
2023-04-03T07:54:39.312Z,98912.02
2023-04-03T07:57:09.230Z,98912.20
2023-04-03T07:59:37.732Z,98915.96
2023-04-03T08:02:10.698Z,98917.02
2023-04-03T08:04:39.775Z,98914.98
2023-04-03T08:07:08.150Z,98917.89
2023-04-03T08:09:37.361Z,98922.70
2023-04-03T08:12:06.053Z,98922.73
2023-04-03T08:14:37.676Z,98925.79
2023-04-03T08:17:12.626Z,98924.10
2023-04-03T08:19:41.218Z,98924.95
2023-04-03T08:22:09.502Z,98927.55
2023-04-03T08:24:39.400Z,98933.91
2023-04-03T08:27:11.965Z,98934.61
2023-04-03T08:29:42.041Z,98934.30
2023-04-03T08:32:11.799Z,98932.78
2023-04-03T08:34:43.783Z,98936.40
2023-04-03T08:37:18.345Z,98933.70
2023-04-03T08:39:46.737Z,98937.34
2023-04-03T08:42:30.450Z,98939.73
2023-04-03T08:45:10.504Z,98938.02
2023-04-03T08:47:58.728Z,98940.23
2023-04-03T08:50:55.058Z,98944.35
2023-04-03T08:53:29.747Z,98941.79
2023-04-03T08:55:59.093Z,98945.73
2023-04-03T08:58:30.300Z,98944.73
2023-04-03T09:01:18.772Z,98945.08
2023-04-03T09:03:47.047Z,98945.27
2023-04-03T09:06:21.677Z,98947.85
2023-04-03T09:09:23.253Z,98952.30
2023-04-03T09:12:10.543Z,98954.37
2023-04-03T09:14:55.453Z,98952.84
2023-04-03T09:17:46.141Z,98954.37
2023-04-03T09:20:25.577Z,98951.79
2023-04-03T09:22:55.305Z,98958.64
2023-04-03T09:25:23.700Z,98960.19
2023-04-03T09:27:54.394Z,98960.02
2023-04-03T09:30:24.858Z,98963.27
2023-04-03T09:32:57.406Z,98965.52
2023-04-03T09:35:40.425Z,98966.58
2023-04-03T09:38:19.766Z,98965.91
2023-04-03T09:41:08.963Z,98967.65
2023-04-03T09:43:40.093Z,98965.10
2023-04-03T09:46:22.452Z,98964.95
2023-04-03T09:49:08.250Z,98967.52
2023-04-03T09:51:38.379Z,98961.73
2023-04-03T09:54:38.884Z,98962.27
2023-04-03T09:57:11.381Z,98967.27
2023-04-03T09:59:49.706Z,98970.53
2023-04-03T10:02:22.984Z,98971.41
2023-04-03T10:07:54.599Z,98973.82
2023-04-03T10:10:29.832Z,98975.36
2023-04-03T10:13:23.009Z,98978.96
2023-04-03T10:16:00.181Z,98981.04
2023-04-03T10:18:39.963Z,98985.84
2023-04-03T10:21:27.400Z,98987.19
2023-04-03T10:24:08.629Z,98991.98
2023-04-03T10:27:07.657Z,98994.04
2023-04-03T10:30:08.273Z,98996.94
2023-04-03T10:32:58.495Z,99002.92
2023-04-03T10:35:39.928Z,99004.64
2023-04-03T10:38:20.521Z,99007.05
2023-04-03T10:40:55.339Z,99006.55
2023-04-03T10:43:35.447Z,99004.32
2023-04-03T10:46:33.209Z,99002.45
2023-04-03T10:49:19.915Z,99005.20
2023-04-03T10:51:50.029Z,99006.23
2023-04-03T10:54:34.994Z,99008.29
2023-04-03T10:57:13.119Z,99007.59
2023-04-03T10:59:47.120Z,99010.66
2023-04-03T11:02:20.493Z,99013.23
2023-04-03T11:04:54.682Z,99012.89
2023-04-03T11:07:32.816Z,99012.70
2023-04-03T11:10:07.753Z,99016.11
2023-04-03T11:13:08.209Z,99020.90
2023-04-03T11:15:39.484Z,99017.64
2023-04-03T11:18:17.375Z,99017.63
2023-04-03T11:21:05.807Z,99018.80
2023-04-03T11:23:48.191Z,99019.62
2023-04-03T11:26:22.090Z,99018.06
2023-04-03T11:28:55.367Z,99023.21
2023-04-03T11:31:44.987Z,99025.27
2023-04-03T11:34:46.660Z,99028.86
2023-04-03T11:37:35.174Z,99026.45
2023-04-03T11:40:10.372Z,99030.73
2023-04-03T11:42:41.849Z,99029.36
2023-04-03T11:45:27.953Z,99036.55
2023-04-03T11:48:23.730Z,99037.38
2023-04-03T11:50:53.527Z,99038.73
2023-04-03T11:53:38.279Z,99038.02
2023-04-03T11:56:25.199Z,99037.17
2023-04-03T11:59:12.900Z,99033.05
2023-04-03T12:01:52.040Z,99034.58
2023-04-03T12:04:22.824Z,99038.00
2023-04-03T12:07:21.943Z,99042.97
2023-04-03T12:09:50.541Z,99045.86
2023-04-03T12:12:38.416Z,99055.11
2023-04-03T12:15:13.775Z,99056.80
2023-04-03T12:17:46.510Z,99066.57
2023-04-03T12:20:53.770Z,99070.42
2023-04-03T12:23:25.754Z,99073.17
2023-04-03T12:25:53.997Z,99075.98
2023-04-03T12:28:22.435Z,99075.58
2023-04-03T12:30:50.773Z,99079.30
2023-04-03T12:33:59.318Z,99083.50
2023-04-03T12:36:48.815Z,99079.62
2023-04-03T12:39:36.196Z,99083.10
2023-04-03T12:42:36.764Z,99083.05
2023-04-03T12:45:20.139Z,99086.27
2023-04-03T12:47:53.705Z,99087.58
2023-04-03T12:50:33.871Z,99089.44
2023-04-03T12:53:13.161Z,99091.60
2023-04-03T12:55:41.595Z,99094.45
2023-04-03T12:58:36.318Z,99098.48
2023-04-03T13:01:11.613Z,99108.86
2023-04-03T13:03:46.226Z,99108.16
2023-04-03T13:06:26.306Z,99113.95
2023-04-03T13:08:59.053Z,99114.62
2023-04-03T13:11:38.025Z,99119.51
2023-04-03T13:14:19.171Z,99120.55
2023-04-03T13:16:55.696Z,99124.67
2023-04-03T13:19:30.247Z,99130.69
2023-04-03T13:22:12.382Z,99136.75
2023-04-03T13:24:41.294Z,99137.47
2023-04-03T13:27:11.633Z,99138.91
2023-04-03T13:29:40.588Z,99140.67
2023-04-03T13:32:09.216Z,99142.45
2023-04-03T13:34:47.337Z,99145.80
2023-04-03T13:37:27.226Z,99150.89
2023-04-03T13:40:22.383Z,99155.85
2023-04-03T13:43:06.894Z,99155.64
2023-04-03T13:45:42.129Z,99156.36
2023-04-03T13:48:23.773Z,99165.29
2023-04-03T13:51:05.466Z,99174.38
2023-04-03T13:53:34.366Z,99173.63
2023-04-03T13:56:08.418Z,99177.83
2023-04-03T13:58:37.338Z,99183.02
2023-04-03T14:01:22.180Z,99185.36
2023-04-03T14:03:54.774Z,99188.76
2023-04-03T14:06:23.629Z,99192.26
2023-04-03T14:08:52.982Z,99195.98
2023-04-03T14:11:26.489Z,99201.91
2023-04-03T14:14:07.685Z,99209.17
2023-04-03T14:16:39.406Z,99212.33
2023-04-03T14:19:08.827Z,99218.85
2023-04-03T14:21:36.980Z,99215.69
2023-04-03T14:24:05.458Z,99218.54
2023-04-03T14:26:33.899Z,99224.40
2023-04-03T14:29:02.324Z,99230.63
2023-04-03T14:31:33.812Z,99228.56
2023-04-03T14:34:03.394Z,99233.48
2023-04-03T14:36:34.528Z,99235.98
2023-04-03T14:39:05.125Z,99238.14
2023-04-03T14:41:34.762Z,99240.77
2023-04-03T14:44:06.203Z,99240.98
2023-04-03T14:46:54.429Z,99244.04
2023-04-03T14:49:27.811Z,99243.99
2023-04-03T14:51:57.610Z,99246.67
2023-04-03T14:54:30.164Z,99244.73
2023-04-03T14:57:01.566Z,99253.44
2023-04-03T14:59:30.445Z,99255.85
2023-04-03T15:01:58.681Z,99259.16
2023-04-03T15:04:29.229Z,99258.54
2023-04-03T15:06:58.148Z,99259.91
2023-04-03T15:09:30.109Z,99262.39
2023-04-03T15:12:06.847Z,99266.42
2023-04-03T15:14:42.294Z,99277.36
2023-04-03T15:17:18.182Z,99279.30
2023-04-03T15:19:50.211Z,99288.14
2023-04-03T15:22:19.764Z,99290.98
2023-04-03T15:24:48.102Z,99290.84
2023-04-03T15:27:16.624Z,99290.56
2023-04-03T15:29:45.545Z,99293.67
2023-04-03T15:32:14.156Z,99298.98
2023-04-03T15:34:43.835Z,99302.73
2023-04-03T15:37:15.545Z,99304.77
2023-04-03T15:39:43.838Z,99306.02
2023-04-03T15:42:13.565Z,99309.83
2023-04-03T15:44:42.635Z,99307.20
2023-04-03T15:47:11.681Z,99304.91
2023-04-03T15:49:42.491Z,99306.41
2023-04-03T15:52:11.121Z,99305.03
2023-04-03T15:54:39.851Z,99309.23
2023-04-03T15:57:08.822Z,99309.69
2023-04-03T15:59:38.694Z,99311.65
2023-04-03T16:02:17.394Z,99307.31
2023-04-03T16:04:45.826Z,99309.17
2023-04-03T16:07:14.202Z,99311.21
2023-04-03T16:09:43.740Z,99314.13
2023-04-03T16:12:14.298Z,99313.25
2023-04-03T16:14:44.460Z,99316.59
2023-04-03T16:17:12.987Z,99318.88
2023-04-03T16:19:41.546Z,99318.95
2023-04-03T16:22:12.708Z,99321.23
2023-04-03T16:24:41.588Z,99318.89
2023-04-03T16:27:10.741Z,99320.66
2023-04-03T16:29:39.334Z,99327.73
2023-04-03T16:32:08.680Z,99330.64
2023-04-03T16:34:37.589Z,99331.44
2023-04-03T16:37:06.923Z,99330.90
2023-04-03T16:39:36.605Z,99329.95
2023-04-03T16:42:05.304Z,99328.83
2023-04-03T16:44:36.287Z,99330.35
2023-04-03T16:47:04.539Z,99330.15
2023-04-03T16:49:35.206Z,99333.59
2023-04-03T16:52:04.732Z,99341.11
2023-04-03T16:54:33.454Z,99342.40
2023-04-03T16:57:01.704Z,99343.38
2023-04-03T16:59:30.626Z,99345.28
2023-04-03T17:01:58.740Z,99351.91
2023-04-03T17:04:27.380Z,99360.44
2023-04-03T17:07:01.137Z,99365.65
2023-04-03T17:09:32.228Z,99367.28
2023-04-03T17:12:01.095Z,99371.64
2023-04-03T17:14:31.458Z,99375.02
2023-04-03T17:17:01.132Z,99382.58
2023-04-03T17:19:29.583Z,99385.30
2023-04-03T17:21:58.458Z,99386.96
2023-04-03T17:24:30.820Z,99389.80
2023-04-03T17:27:03.894Z,99391.13
2023-04-03T17:29:34.087Z,99394.58
2023-04-03T17:32:06.159Z,99397.33
2023-04-03T17:34:36.787Z,99401.98
2023-04-03T17:37:05.759Z,99401.39
2023-04-03T17:39:35.080Z,99406.20
2023-04-03T17:42:03.615Z,99408.19
2023-04-03T17:44:33.321Z,99413.80
2023-04-03T17:47:03.080Z,99419.39
2023-04-03T17:49:33.636Z,99417.63
2023-04-03T17:52:01.988Z,99426.77
2023-04-03T17:54:30.734Z,99424.98
2023-04-03T17:56:58.880Z,99426.98
2023-04-03T17:59:27.903Z,99426.19
2023-04-03T18:01:57.148Z,99423.98
2023-04-03T18:04:25.846Z,99423.89
2023-04-03T18:06:54.574Z,99430.95
2023-04-03T18:09:27.094Z,99429.08
2023-04-03T18:11:55.490Z,99432.69
2023-04-03T18:14:25.321Z,99433.34
2023-04-03T18:16:54.051Z,99437.70
2023-04-03T18:19:30.031Z,99439.64
2023-04-03T18:22:04.843Z,99443.89
2023-04-03T18:24:38.387Z,99446.70
2023-04-03T18:27:14.532Z,99453.02
2023-04-03T18:29:44.513Z,99453.17
2023-04-03T18:32:19.186Z,99452.29
2023-04-03T18:34:47.848Z,99461.85
2023-04-03T18:37:16.196Z,99460.91
2023-04-03T18:39:47.128Z,99463.41
2023-04-03T18:42:19.224Z,99464.40
2023-04-03T18:44:51.801Z,99468.40
2023-04-03T18:47:21.197Z,99470.71
2023-04-03T18:49:49.593Z,99464.99
2023-04-03T18:52:18.353Z,99468.10
2023-04-03T18:54:47.396Z,99470.30
2023-04-03T18:57:15.589Z,99476.48
2023-04-03T18:59:45.598Z,99478.10
2023-04-03T19:02:14.311Z,99482.16
2023-04-03T19:04:42.909Z,99478.13
2023-04-03T19:07:12.136Z,99481.35
2023-04-03T19:09:40.613Z,99481.85
2023-04-03T19:12:10.930Z,99486.23
2023-04-03T19:14:43.790Z,99492.13
2023-04-03T19:17:12.208Z,99489.52
2023-04-03T19:19:40.471Z,99488.63
2023-04-03T19:22:08.824Z,99490.14
2023-04-03T19:24:37.221Z,99493.05
2023-04-03T19:27:05.621Z,99494.94
2023-04-03T19:29:34.531Z,99498.40
2023-04-03T19:32:04.439Z,99505.04
2023-04-03T19:34:34.428Z,99510.15
2023-04-03T19:37:03.022Z,99503.04
2023-04-03T19:39:34.022Z,99504.81
2023-04-03T19:42:02.854Z,99496.95
2023-04-03T19:44:36.230Z,99494.38
2023-04-03T19:47:04.511Z,99493.66
2023-04-03T19:49:32.884Z,99487.20
2023-04-03T19:52:01.976Z,99484.95
2023-04-03T19:54:30.545Z,99480.55
2023-04-03T19:56:58.799Z,99481.89
2023-04-03T19:59:27.409Z,99476.94
2023-04-03T20:01:57.970Z,99480.46
2023-04-03T20:04:26.412Z,99477.38
2023-04-03T20:06:54.682Z,99485.83
2023-04-03T20:09:23.245Z,99483.84
2023-04-03T20:11:53.899Z,99492.27
2023-04-03T20:14:26.942Z,99490.23
2023-04-03T20:16:55.432Z,99497.36
2023-04-03T20:19:27.127Z,99496.84
2023-04-03T20:21:56.172Z,99501.04
2023-04-03T20:24:31.081Z,99501.77
2023-04-03T20:27:02.186Z,99498.77
2023-04-03T20:29:36.800Z,99500.97
2023-04-03T20:32:07.481Z,99502.77
2023-04-03T20:34:35.847Z,99504.56
2023-04-03T20:37:04.761Z,99506.00
2023-04-03T20:39:34.044Z,99510.29
2023-04-03T20:42:05.577Z,99511.89
2023-04-03T20:44:37.914Z,99513.73
2023-04-03T20:47:20.757Z,99512.30
2023-04-03T20:49:57.593Z,99513.36
2023-04-03T20:52:30.269Z,99514.37
2023-04-03T20:55:06.597Z,99514.02
2023-04-03T20:57:42.591Z,99514.89
2023-04-03T21:00:13.913Z,99511.79
2023-04-03T21:02:51.624Z,99510.73
2023-04-03T21:05:23.202Z,99517.44
2023-04-03T21:08:37.863Z,99522.63
2023-04-03T21:11:45.229Z,99519.13
2023-04-03T21:15:06.021Z,99518.48
2023-04-03T21:18:12.026Z,99526.39
2023-04-03T21:20:56.084Z,99530.27
2023-04-03T21:23:40.024Z,99529.04
2023-04-03T21:26:34.470Z,99529.42
2023-04-03T21:29:15.327Z,99530.11
2023-04-03T21:32:23.834Z,99529.45
2023-04-03T21:34:59.991Z,99533.08
2023-04-03T21:37:34.754Z,99537.20
2023-04-03T21:40:37.802Z,99536.85
2023-04-03T21:43:16.006Z,99538.02
2023-04-03T21:46:00.059Z,99544.36
2023-04-03T21:48:43.475Z,99549.33
2023-04-03T21:51:17.922Z,99555.42
2023-04-03T21:54:19.878Z,99548.13
2023-04-03T21:57:04.934Z,99549.66
2023-04-03T22:00:39.712Z,99552.04
2023-04-03T22:03:33.594Z,99554.41
2023-04-03T22:06:14.363Z,99552.57
2023-04-03T22:09:43.369Z,99555.09
2023-04-03T22:12:35.242Z,99560.02
2023-04-03T22:15:07.111Z,99551.73
2023-04-03T22:19:04.983Z,99555.42
2023-04-03T22:21:53.767Z,99553.64
2023-04-03T22:24:30.400Z,99561.84
2023-04-03T22:27:03.119Z,99555.38
2023-04-03T22:29:38.571Z,99553.47
2023-04-03T22:32:29.300Z,99548.60
2023-04-03T22:35:12.327Z,99545.23
2023-04-03T22:37:46.361Z,99540.84
2023-04-03T22:40:18.629Z,99539.20
2023-04-03T22:42:51.781Z,99535.48
2023-04-03T22:45:22.817Z,99538.16
2023-04-03T22:48:00.558Z,99538.81
2023-04-03T22:50:32.032Z,99542.48
2023-04-03T22:53:03.930Z,99536.69
2023-04-03T22:55:32.423Z,99538.32
2023-04-03T22:58:01.235Z,99537.67
2023-04-03T23:00:32.250Z,99542.08
2023-04-03T23:03:28.656Z,99544.48
2023-04-03T23:06:10.746Z,99543.62
2023-04-03T23:08:45.606Z,99552.08
2023-04-03T23:11:19.876Z,99551.77
2023-04-03T23:13:49.102Z,99551.23
2023-04-03T23:16:30.926Z,99555.67
2023-04-03T23:19:16.175Z,99554.92
2023-04-03T23:21:46.155Z,99559.25
2023-04-03T23:24:20.567Z,99558.59
2023-04-03T23:26:51.968Z,99556.16
2023-04-03T23:29:22.931Z,99550.67
2023-04-03T23:31:51.623Z,99546.68
2023-04-03T23:34:23.498Z,99544.31
2023-04-03T23:36:52.464Z,99549.25
2023-04-03T23:39:23.212Z,99546.88
2023-04-03T23:41:54.863Z,99547.97
2023-04-03T23:44:36.844Z,99547.24
2023-04-03T23:47:11.990Z,99551.40
2023-04-03T23:49:41.012Z,99550.38
2023-04-03T23:52:09.644Z,99551.06
2023-04-03T23:54:40.096Z,99551.21
2023-04-03T23:57:12.200Z,99550.27
2023-04-03T23:59:42.396Z,99546.02
